createdAt,value
2018-03-28T00:00:17.574Z,99425
2018-03-28T00:02:43.791Z,99421
2018-03-28T00:05:10.719Z,99416
2018-03-28T00:07:36.953Z,99417
2018-03-28T00:10:03.135Z,99404
2018-03-28T00:12:30.084Z,99408
2018-03-28T00:14:57.062Z,99413
2018-03-28T00:17:23.285Z,99403
2018-03-28T00:19:50.186Z,99402
2018-03-28T00:22:16.378Z,99412
2018-03-28T00:24:43.315Z,99392
2018-03-28T00:27:09.536Z,99393
2018-03-28T00:29:35.735Z,99389
2018-03-28T00:32:01.887Z,99391
2018-03-28T00:34:28.103Z,99386
2018-03-28T00:36:55.211Z,99382
2018-03-28T00:39:21.391Z,99387
2018-03-28T00:53:51.235Z,99371
2018-03-28T00:56:17.394Z,99360
2018-03-28T00:58:43.601Z,99354
2018-03-28T01:01:09.785Z,99346
2018-03-28T01:03:36.662Z,99342
2018-03-28T01:06:02.841Z,99347
2018-03-28T01:08:28.981Z,99338
2018-03-28T01:10:55.159Z,99344
2018-03-28T01:13:22.023Z,99341
2018-03-28T01:15:48.183Z,99334
2018-03-28T01:18:14.318Z,99335
2018-03-28T01:20:40.471Z,99333
2018-03-28T01:23:06.607Z,99336
2018-03-28T01:25:32.805Z,99333
2018-03-28T01:27:59.713Z,99326
2018-03-28T01:30:25.907Z,99326
2018-03-28T01:32:52.812Z,99325
2018-03-28T01:35:18.983Z,99317
2018-03-28T01:37:45.146Z,99316
2018-03-28T01:40:12.018Z,99311
2018-03-28T01:42:38.197Z,99322
2018-03-28T01:45:04.367Z,99314
2018-03-28T01:47:31.298Z,99297
2018-03-28T01:49:57.463Z,99284
2018-03-28T01:52:24.337Z,99282
2018-03-28T01:54:51.272Z,99288
2018-03-28T01:57:17.432Z,99292
2018-03-28T01:59:43.598Z,99294
2018-03-28T02:02:09.764Z,99285
2018-03-28T02:04:35.972Z,99291
2018-03-28T02:07:02.141Z,99286
2018-03-28T02:09:28.324Z,99269
2018-03-28T02:11:55.219Z,99273
2018-03-28T02:14:21.379Z,99265
2018-03-28T02:16:47.577Z,99258
2018-03-28T02:19:13.747Z,99259
2018-03-28T02:21:39.899Z,99264
2018-03-28T02:24:06.065Z,99254
2018-03-28T02:26:32.958Z,99257
2018-03-28T02:28:59.133Z,99258
2018-03-28T02:31:25.323Z,99257
2018-03-28T02:33:51.511Z,99252
2018-03-28T02:36:17.687Z,99247
2018-03-28T02:38:44.569Z,99239
2018-03-28T02:41:10.734Z,99231
2018-03-28T02:43:36.954Z,99224
2018-03-28T02:46:03.139Z,99232
2018-03-28T02:48:29.359Z,99227
2018-03-28T02:50:55.475Z,99229
2018-03-28T02:53:21.641Z,99230
2018-03-28T02:55:47.815Z,99228
2018-03-28T02:58:14.726Z,99231
2018-03-28T03:00:40.875Z,99239
2018-03-28T03:03:07.088Z,99226
2018-03-28T03:05:33.264Z,99215
2018-03-28T03:07:59.465Z,99216
2018-03-28T03:10:25.631Z,99209
2018-03-28T03:12:51.754Z,99205
2018-03-28T03:15:17.901Z,99208
2018-03-28T03:17:44.023Z,99213
2018-03-28T03:20:10.195Z,99208
2018-03-28T03:22:36.378Z,99210
2018-03-28T03:25:03.312Z,99204
2018-03-28T03:27:29.474Z,99193
2018-03-28T03:29:56.386Z,99198
2018-03-28T03:32:22.538Z,99191
2018-03-28T03:34:48.677Z,99195
2018-03-28T03:37:14.826Z,99203
2018-03-28T03:39:40.974Z,99198
2018-03-28T03:42:07.895Z,99193
2018-03-28T03:44:34.061Z,99200
2018-03-28T03:47:00.219Z,99198
2018-03-28T03:49:27.115Z,99197
2018-03-28T03:51:53.271Z,99196
2018-03-28T03:54:19.426Z,99205
2018-03-28T03:56:45.632Z,99201
2018-03-28T03:59:11.820Z,99208
2018-03-28T04:01:38.037Z,99207
2018-03-28T04:04:04.249Z,99208
2018-03-28T04:06:30.438Z,99197
2018-03-28T04:08:56.622Z,99202
2018-03-28T04:11:22.811Z,99197
2018-03-28T04:13:49.014Z,99188
2018-03-28T04:16:15.207Z,99185
2018-03-28T04:18:42.111Z,99193
2018-03-28T04:21:08.345Z,99182
2018-03-28T04:23:34.542Z,99192
2018-03-28T04:26:00.733Z,99186
2018-03-28T04:28:26.903Z,99183
2018-03-28T04:30:53.112Z,99179
2018-03-28T04:33:19.359Z,99170
2018-03-28T04:35:45.566Z,99165
2018-03-28T04:38:11.776Z,99165
2018-03-28T04:40:37.935Z,99180
2018-03-28T04:43:04.870Z,99183
2018-03-28T04:45:31.094Z,99167
2018-03-28T04:47:57.286Z,99156
2018-03-28T04:50:23.450Z,99150
2018-03-28T04:52:49.642Z,99149
2018-03-28T04:55:16.588Z,99148
2018-03-28T04:57:42.790Z,99144
2018-03-28T05:00:08.980Z,99149
2018-03-28T05:02:35.859Z,99153
2018-03-28T05:05:02.027Z,99163
2018-03-28T05:07:28.199Z,99163
2018-03-28T05:09:54.355Z,99164
2018-03-28T05:12:21.272Z,99160
2018-03-28T05:14:47.562Z,99165
2018-03-28T05:17:14.503Z,99159
2018-03-28T05:19:41.416Z,99152
2018-03-28T05:22:07.536Z,99153
2018-03-28T05:24:33.703Z,99153
2018-03-28T05:26:59.847Z,99166
2018-03-28T05:29:26.025Z,99149
2018-03-28T05:31:52.958Z,99152
2018-03-28T05:34:19.116Z,99148
2018-03-28T05:36:46.045Z,99149
2018-03-28T05:39:12.191Z,99148
2018-03-28T05:41:38.359Z,99147
2018-03-28T05:44:05.264Z,99145
2018-03-28T05:46:31.465Z,99146
2018-03-28T05:48:57.602Z,99145
2018-03-28T05:51:24.531Z,99153
2018-03-28T05:53:50.695Z,99161
2018-03-28T05:56:17.593Z,99164
2018-03-28T05:58:43.751Z,99153
2018-03-28T06:01:09.947Z,99153
2018-03-28T06:03:38.162Z,99150
2018-03-28T06:06:04.323Z,99149
2018-03-28T06:08:30.466Z,99140
2018-03-28T06:10:56.648Z,99134
2018-03-28T06:13:22.880Z,99144
2018-03-28T06:15:49.799Z,99132
2018-03-28T06:18:15.962Z,99132
2018-03-28T06:20:42.888Z,99135
2018-03-28T06:23:09.049Z,99136
2018-03-28T06:25:35.231Z,99128
2018-03-28T06:28:01.374Z,99133
2018-03-28T06:30:27.588Z,99121
2018-03-28T06:32:54.495Z,99121
2018-03-28T06:35:20.646Z,99115
2018-03-28T06:37:46.857Z,99112
2018-03-28T06:40:13.063Z,99112
2018-03-28T06:42:39.997Z,99100
2018-03-28T06:45:06.184Z,99110
2018-03-28T06:47:32.355Z,99108
2018-03-28T06:49:58.520Z,99106
2018-03-28T06:52:25.426Z,99102
2018-03-28T06:54:51.571Z,99099
2018-03-28T06:57:17.737Z,99101
2018-03-28T06:59:43.962Z,99093
2018-03-28T07:02:10.052Z,99096
2018-03-28T07:04:36.947Z,99086
2018-03-28T07:07:03.114Z,99089
2018-03-28T07:09:29.267Z,99092
2018-03-28T07:11:56.942Z,99087
2018-03-28T07:14:23.181Z,99080
2018-03-28T07:16:49.360Z,99080
2018-03-28T07:19:15.523Z,99082
2018-03-28T07:21:41.686Z,99074
2018-03-28T07:24:07.889Z,99081
2018-03-28T07:26:34.059Z,99073
2018-03-28T07:29:00.234Z,99073
2018-03-28T07:31:27.155Z,99064
2018-03-28T07:33:53.350Z,99073
2018-03-28T07:36:19.528Z,99071
2018-03-28T07:38:45.718Z,99073
2018-03-28T07:41:11.899Z,99069
2018-03-28T07:43:38.035Z,99068
2018-03-28T07:46:04.278Z,99075
2018-03-28T07:48:30.399Z,99070
2018-03-28T07:50:56.604Z,99069
2018-03-28T07:53:23.503Z,99069
2018-03-28T07:55:49.695Z,99071
2018-03-28T07:58:16.615Z,99063
2018-03-28T08:00:42.797Z,99073
2018-03-28T08:03:09.719Z,99076
2018-03-28T08:05:35.906Z,99073
2018-03-28T08:08:02.830Z,99073
2018-03-28T08:10:29.051Z,99055
2018-03-28T08:12:55.294Z,99066
2018-03-28T08:15:21.478Z,99057
2018-03-28T08:17:48.407Z,99063
2018-03-28T08:20:14.615Z,99051
2018-03-28T08:22:40.808Z,99051
2018-03-28T08:25:07.744Z,99055
2018-03-28T08:27:33.924Z,99042
2018-03-28T08:30:00.156Z,99044
2018-03-28T08:32:27.099Z,99056
2018-03-28T08:34:53.295Z,99047
2018-03-28T08:37:19.506Z,99030
2018-03-28T08:39:45.671Z,99038
2018-03-28T08:42:11.875Z,99035
2018-03-28T08:44:38.814Z,99031
2018-03-28T08:47:05.040Z,99037
2018-03-28T08:49:31.234Z,99028
2018-03-28T08:51:57.455Z,99033
2018-03-28T08:54:24.410Z,99038
2018-03-28T08:56:51.379Z,99024
2018-03-28T08:59:17.571Z,99032
2018-03-28T09:01:43.738Z,99032
2018-03-28T09:04:10.654Z,99018
2018-03-28T09:06:36.782Z,99018
2018-03-28T09:09:02.903Z,99016
2018-03-28T09:11:29.035Z,99017
2018-03-28T09:13:55.222Z,99007
2018-03-28T09:16:21.383Z,99014
2018-03-28T09:18:47.567Z,99003
2018-03-28T09:21:13.735Z,99001
2018-03-28T09:23:39.928Z,98995
2018-03-28T09:26:06.183Z,98992
2018-03-28T09:28:33.101Z,99001
2018-03-28T09:31:00.028Z,98989
2018-03-28T09:33:26.204Z,98993
2018-03-28T09:35:53.104Z,98987
2018-03-28T09:38:19.280Z,98990
2018-03-28T09:40:45.491Z,98978
2018-03-28T09:46:34.536Z,98988
2018-03-28T09:49:00.729Z,98987
2018-03-28T09:51:26.928Z,98989
2018-03-28T09:53:53.896Z,98980
2018-03-28T09:56:20.783Z,98975
2018-03-28T09:58:46.900Z,98969
2018-03-28T10:01:20.005Z,98975
2018-03-28T10:03:48.987Z,98964
2018-03-28T10:06:15.916Z,98965
2018-03-28T10:08:42.058Z,98958
2018-03-28T10:11:08.219Z,98959
2018-03-28T10:13:34.397Z,98965
2018-03-28T10:16:00.582Z,98953
2018-03-28T10:18:26.753Z,98951
2018-03-28T10:20:53.675Z,98949
2018-03-28T10:23:19.831Z,98961
2018-03-28T10:25:46.032Z,98960
2018-03-28T10:28:12.187Z,98965
2018-03-28T10:30:38.350Z,98965
2018-03-28T10:33:04.503Z,98963
2018-03-28T10:35:31.380Z,98949
2018-03-28T10:37:57.568Z,98959
2018-03-28T10:40:23.731Z,98939
2018-03-28T10:42:50.666Z,98945
2018-03-28T10:45:16.851Z,98940
2018-03-28T10:47:43.023Z,98945
2018-03-28T10:50:09.174Z,98945
2018-03-28T10:52:35.352Z,98935
2018-03-28T10:55:02.267Z,98935
2018-03-28T10:57:28.420Z,98933
2018-03-28T11:00:05.518Z,98922
2018-03-28T11:02:31.712Z,98934
2018-03-28T11:04:57.859Z,98915
2018-03-28T11:07:24.043Z,98933
2018-03-28T11:09:50.278Z,98925
2018-03-28T11:12:16.425Z,98924
2018-03-28T11:14:42.626Z,98923
2018-03-28T11:17:08.824Z,98916
2018-03-28T11:19:35.779Z,98930
2018-03-28T11:22:02.681Z,98921
2018-03-28T11:24:28.862Z,98919
2018-03-28T11:26:55.843Z,98917
2018-03-28T11:29:22.808Z,98908
2018-03-28T11:31:49.001Z,98905
2018-03-28T11:34:15.221Z,98908
2018-03-28T11:36:41.417Z,98911
2018-03-28T11:39:08.367Z,98908
2018-03-28T11:41:35.303Z,98913
2018-03-28T11:44:01.521Z,98901
2018-03-28T11:46:27.709Z,98911
2018-03-28T11:48:54.692Z,98912
2018-03-28T11:51:20.882Z,98916
2018-03-28T11:53:47.101Z,98898
2018-03-28T11:56:13.294Z,98906
2018-03-28T11:58:40.242Z,98906
2018-03-28T12:01:07.194Z,98896
2018-03-28T12:03:33.395Z,98896
2018-03-28T12:05:59.606Z,98897
2018-03-28T12:08:25.819Z,98903
2018-03-28T12:10:52.740Z,98905
2018-03-28T12:13:18.939Z,98899
2018-03-28T12:15:45.150Z,98898
2018-03-28T12:18:11.334Z,98904
2018-03-28T12:20:37.556Z,98898
2018-03-28T12:23:03.762Z,98906
2018-03-28T12:25:29.969Z,98904
2018-03-28T12:27:56.166Z,98895
2018-03-28T12:30:23.171Z,98904
2018-03-28T12:32:50.025Z,98895
2018-03-28T12:35:16.215Z,98889
2018-03-28T12:37:43.171Z,98898
2018-03-28T12:40:10.097Z,98893
2018-03-28T12:42:36.316Z,98882
2018-03-28T12:45:02.530Z,98879
2018-03-28T12:47:28.765Z,98868
2018-03-28T12:49:55.095Z,98875
2018-03-28T12:52:21.246Z,98878
2018-03-28T12:54:48.155Z,98867
2018-03-28T12:57:14.375Z,98867
2018-03-28T12:59:40.565Z,98868
2018-03-28T13:02:07.559Z,98877
2018-03-28T13:04:33.773Z,98871
2018-03-28T13:06:59.943Z,98872
2018-03-28T13:09:26.156Z,98865
2018-03-28T13:11:53.098Z,98858
2018-03-28T13:14:20.047Z,98862
2018-03-28T13:16:46.967Z,98864
2018-03-28T13:19:13.157Z,98860
2018-03-28T13:21:40.094Z,98848
2018-03-28T13:24:12.460Z,98856
2018-03-28T13:26:38.676Z,98851
2018-03-28T13:29:04.906Z,98837
2018-03-28T13:31:31.109Z,98843
2018-03-28T13:33:58.080Z,98831
2018-03-28T13:36:25.023Z,98837
2018-03-28T13:38:51.211Z,98841
2018-03-28T13:41:17.406Z,98835
2018-03-28T13:43:43.595Z,98841
2018-03-28T13:46:09.798Z,98831
2018-03-28T13:48:36.701Z,98840
2018-03-28T13:51:02.891Z,98830
2018-03-28T13:53:29.800Z,98828
2018-03-28T13:55:56.045Z,98825
2018-03-28T13:58:22.315Z,98825
2018-03-28T14:00:49.232Z,98816
2018-03-28T14:03:15.429Z,98815
2018-03-28T14:05:42.429Z,98812
2018-03-28T14:08:08.605Z,98813
2018-03-28T14:10:34.826Z,98811
2018-03-28T14:13:01.035Z,98800
2018-03-28T14:15:27.218Z,98809
2018-03-28T14:17:53.432Z,98798
2018-03-28T14:20:19.632Z,98791
2018-03-28T14:22:46.582Z,98800
2018-03-28T14:25:13.518Z,98799
2018-03-28T14:27:39.712Z,98797
2018-03-28T14:30:05.921Z,98797
2018-03-28T14:32:32.852Z,98793
2018-03-28T14:34:59.059Z,98793
2018-03-28T14:37:25.259Z,98781
2018-03-28T14:39:52.170Z,98787
2018-03-28T14:42:18.356Z,98782
2018-03-28T14:44:45.319Z,98777
2018-03-28T14:47:12.224Z,98775
2018-03-28T14:49:38.433Z,98777
2018-03-28T14:52:04.619Z,98768
2018-03-28T14:54:30.825Z,98770
2018-03-28T14:56:57.037Z,98761
2018-03-28T14:59:23.999Z,98760
2018-03-28T15:01:50.934Z,98763
2018-03-28T15:04:17.094Z,98755
2018-03-28T15:06:44.068Z,98754
2018-03-28T15:09:10.955Z,98740
2018-03-28T15:11:37.114Z,98748
2018-03-28T15:14:04.120Z,98740
2018-03-28T15:16:30.287Z,98738
2018-03-28T15:18:56.450Z,98739
2018-03-28T15:21:22.579Z,98734
2018-03-28T15:23:48.739Z,98729
2018-03-28T15:26:14.893Z,98726
2018-03-28T15:28:41.833Z,98737
2018-03-28T15:31:07.990Z,98730
2018-03-28T15:33:34.915Z,98728
2018-03-28T15:36:01.078Z,98730
2018-03-28T15:38:27.286Z,98727
2018-03-28T15:40:53.458Z,98722
2018-03-28T15:43:19.628Z,98716
2018-03-28T15:45:45.799Z,98712
2018-03-28T15:48:32.528Z,98724
2018-03-28T15:50:58.711Z,98710
2018-03-28T15:53:25.617Z,98717
2018-03-28T15:55:51.790Z,98706
2018-03-28T15:58:17.976Z,98701
2018-03-28T16:00:44.139Z,98690
2018-03-28T16:03:10.311Z,98683
2018-03-28T16:05:36.509Z,98687
2018-03-28T16:08:02.669Z,98683
2018-03-28T16:10:28.842Z,98681
2018-03-28T16:12:55.763Z,98679
2018-03-28T16:15:21.923Z,98677
2018-03-28T16:17:48.127Z,98694
2018-03-28T16:20:14.257Z,98682
2018-03-28T16:22:40.416Z,98684
2018-03-28T16:25:06.587Z,98679
2018-03-28T16:27:32.761Z,98679
2018-03-28T16:29:58.941Z,98679
2018-03-28T16:32:25.112Z,98671
2018-03-28T16:34:52.035Z,98669
2018-03-28T16:37:18.257Z,98672
2018-03-28T16:39:44.459Z,98668
2018-03-28T16:42:11.359Z,98656
2018-03-28T16:44:37.491Z,98663
2018-03-28T16:47:03.687Z,98667
2018-03-28T16:49:29.860Z,98657
2018-03-28T16:51:55.982Z,98655
2018-03-28T16:54:22.134Z,98658
2018-03-28T16:56:48.315Z,98635
2018-03-28T16:59:15.614Z,98646
2018-03-28T17:01:42.581Z,98625
2018-03-28T17:04:09.475Z,98629
2018-03-28T17:06:35.639Z,98638
2018-03-28T17:09:01.799Z,98626
2018-03-28T17:11:27.955Z,98627
2018-03-28T17:13:54.862Z,98631
2018-03-28T17:16:21.032Z,98627
2018-03-28T17:22:16.816Z,98617
2018-03-28T17:24:43.770Z,98614
2018-03-28T17:27:09.937Z,98612
2018-03-28T17:29:36.110Z,98606
2018-03-28T17:32:02.276Z,98603
2018-03-28T17:34:28.471Z,98590
2018-03-28T17:36:54.662Z,98588
2018-03-28T17:39:39.550Z,98591
2018-03-28T17:42:24.350Z,98593
2018-03-28T17:45:18.641Z,98602
2018-03-28T17:47:44.803Z,98598
2018-03-28T17:50:10.958Z,98594
2018-03-28T17:52:37.171Z,98592
2018-03-28T17:55:03.352Z,98594
2018-03-28T18:00:37.030Z,98592
2018-03-28T18:03:04.012Z,98593
2018-03-28T18:05:30.172Z,98600
2018-03-28T18:07:56.357Z,98591
2018-03-28T18:10:30.489Z,98603
2018-03-28T18:12:57.405Z,98585
2018-03-28T18:15:33.727Z,98587
2018-03-28T18:17:59.879Z,98580
2018-03-28T18:23:34.451Z,98569
2018-03-28T18:26:01.339Z,98556
2018-03-28T18:28:27.491Z,98548
2018-03-28T18:30:53.641Z,98554
2018-03-28T18:33:19.818Z,98549
2018-03-28T18:35:46.750Z,98545
2018-03-28T18:38:12.911Z,98535
2018-03-28T18:40:41.900Z,98535
2018-03-28T18:43:08.075Z,98536
2018-03-28T18:45:58.731Z,98534
2018-03-28T18:48:38.567Z,98510
2018-03-28T18:51:04.734Z,98520
2018-03-28T18:53:30.883Z,98521
2018-03-28T18:59:16.026Z,98509
2018-03-28T19:01:42.206Z,98502
2018-03-28T19:04:08.414Z,98503
2018-03-28T19:06:35.367Z,98506
2018-03-28T19:09:02.284Z,98491
2018-03-28T19:11:28.482Z,98487
2018-03-28T19:13:54.707Z,98485
2018-03-28T19:16:21.653Z,98485
2018-03-28T19:18:47.819Z,98481
2018-03-28T19:21:14.036Z,98480
2018-03-28T19:23:40.181Z,98477
2018-03-28T19:26:07.151Z,98482
2018-03-28T19:28:34.036Z,98479
2018-03-28T19:31:00.248Z,98470
2018-03-28T19:33:27.177Z,98481
2018-03-28T19:35:53.401Z,98466
2018-03-28T19:38:19.574Z,98460
2018-03-28T19:40:46.507Z,98469
2018-03-28T19:43:12.702Z,98458
2018-03-28T19:45:38.863Z,98460
2018-03-28T19:48:05.020Z,98459
2018-03-28T19:50:31.195Z,98456
2018-03-28T19:53:01.473Z,98453
2018-03-28T19:55:28.415Z,98442
2018-03-28T19:57:54.611Z,98451
2018-03-28T20:00:20.759Z,98440
2018-03-28T20:02:47.687Z,98445
2018-03-28T20:05:13.886Z,98439
2018-03-28T20:07:40.040Z,98436
2018-03-28T20:10:06.220Z,98426
2018-03-28T20:12:32.457Z,98427
2018-03-28T20:14:58.628Z,98423
2018-03-28T20:17:24.802Z,98431
2018-03-28T20:19:50.960Z,98428
2018-03-28T20:22:17.143Z,98425
2018-03-28T20:24:44.119Z,98412
2018-03-28T20:27:10.307Z,98398
2018-03-28T20:29:36.507Z,98394
2018-03-28T20:32:02.655Z,98400
2018-03-28T20:34:28.856Z,98391
2018-03-28T20:36:55.041Z,98396
2018-03-28T20:39:21.207Z,98384
2018-03-28T20:41:47.364Z,98384
2018-03-28T20:44:13.527Z,98389
2018-03-28T20:46:39.682Z,98387
2018-03-28T20:49:05.843Z,98383
2018-03-28T20:51:32.033Z,98385
2018-03-28T20:53:58.950Z,98377
2018-03-28T20:56:25.111Z,98378
2018-03-28T20:58:51.288Z,98375
2018-03-28T21:01:17.446Z,98365
2018-03-28T21:03:43.611Z,98367
2018-03-28T21:06:09.787Z,98368
2018-03-28T21:08:36.763Z,98373
2018-03-28T21:11:02.934Z,98364
2018-03-28T21:13:29.100Z,98369
2018-03-28T21:15:55.259Z,98364
2018-03-28T21:18:22.175Z,98365
2018-03-28T21:20:48.374Z,98354
2018-03-28T21:23:14.550Z,98352
2018-03-28T21:25:41.491Z,98347
2018-03-28T21:28:07.670Z,98333
2018-03-28T21:30:33.910Z,98334
2018-03-28T21:33:00.836Z,98334
2018-03-28T21:35:27.011Z,98333
2018-03-28T21:38:06.415Z,98332
2018-03-28T21:40:40.395Z,98320
2018-03-28T21:43:20.429Z,98319
2018-03-28T21:45:51.903Z,98317
2018-03-28T21:51:18.027Z,98300
2018-03-28T21:53:50.923Z,98309
2018-03-28T21:56:32.356Z,98304
2018-03-28T21:58:58.507Z,98303
2018-03-28T22:04:51.822Z,98280
2018-03-28T22:10:18.154Z,98269
2018-03-28T22:12:50.951Z,98271
2018-03-28T22:15:17.178Z,98261
2018-03-28T22:18:11.879Z,98259
2018-03-28T22:21:00.731Z,98258
2018-03-28T22:23:28.023Z,98247
2018-03-28T22:25:54.995Z,98251
2018-03-28T22:28:36.224Z,98240
2018-03-28T22:34:23.837Z,98228
2018-03-28T22:36:50.031Z,98229
2018-03-28T22:39:16.204Z,98230
2018-03-28T22:41:42.459Z,98219
2018-03-28T23:02:08.544Z,98196
2018-03-28T23:04:34.741Z,98196
2018-03-28T23:07:00.928Z,98192
2018-03-28T23:09:27.080Z,98189
2018-03-28T23:11:53.266Z,98181
2018-03-28T23:14:19.402Z,98177
2018-03-28T23:16:45.594Z,98201
2018-03-28T23:19:11.754Z,98191
2018-03-28T23:21:37.921Z,98190
2018-03-28T23:24:04.119Z,98202
2018-03-28T23:26:30.264Z,98201
2018-03-28T23:28:56.433Z,98200
2018-03-28T23:31:22.581Z,98215
2018-03-28T23:33:48.739Z,98207
2018-03-28T23:36:15.647Z,98223
2018-03-28T23:38:41.815Z,98211
2018-03-28T23:41:08.026Z,98202
2018-03-28T23:43:34.184Z,98207
2018-03-28T23:46:00.323Z,98200
2018-03-28T23:48:26.517Z,98194
2018-03-28T23:50:52.703Z,98204
2018-03-28T23:53:18.863Z,98188
2018-03-28T23:55:45.776Z,98187
2018-03-28T23:58:11.911Z,98186
